Time;durP1;ratioP1;P1;durP2;ratioP2;P2;SDS_P1;SDS_P2;PMS_P1;PMS_P2;Temp;Humidity;BMP_temperature;BMP_pressure;BME280_temperature;BME280_humidity;BME280_pressure;Samples;Min_cycle;Max_cycle;Signal;HPM_P1;HPM_P2
2022/06/11 00:01:01;;;;;;;5.63;2.65;;;14.90;99.90;;;;;;5065796;28;20390;-73
2022/06/11 00:03:27;;;;;;;5.13;2.15;;;14.90;99.90;;;;;;5075443;28;20038;-71
2022/06/11 00:05:53;;;;;;;5.00;2.88;;;14.90;99.90;;;;;;5066820;28;20025;-72
2022/06/11 00:08:19;;;;;;;6.05;2.70;;;14.80;99.90;;;;;;5068455;28;20025;-73
2022/06/11 00:10:45;;;;;;;6.03;3.05;;;14.80;99.90;;;;;;5072908;28;20032;-73
2022/06/11 00:13:12;;;;;;;7.93;3.10;;;14.80;99.90;;;;;;5074283;28;20017;-73
2022/06/11 00:15:38;;;;;;;5.00;2.63;;;14.70;99.90;;;;;;5070443;28;20036;-73
2022/06/11 00:18:05;;;;;;;6.57;2.97;;;14.70;99.90;;;;;;5068527;28;20025;-73
2022/06/11 00:20:31;;;;;;;4.90;2.50;;;14.70;99.90;;;;;;5077981;28;20035;-73
2022/06/11 00:22:58;;;;;;;11.15;3.17;;;14.70;99.90;;;;;;5068018;28;20116;-73
2022/06/11 00:25:25;;;;;;;5.53;2.75;;;14.60;99.90;;;;;;5065171;28;20086;-72
2022/06/11 00:27:50;;;;;;;3.28;2.50;;;14.60;99.90;;;;;;5056113;28;20073;-74
2022/06/11 00:30:18;;;;;;;2.53;2.33;;;14.60;99.90;;;;;;5071151;28;20063;-72
2022/06/11 00:32:45;;;;;;;3.88;2.97;;;14.50;99.90;;;;;;5061891;28;20497;-72
2022/06/11 00:35:11;;;;;;;4.70;2.83;;;14.50;99.90;;;;;;5070272;28;20039;-73
2022/06/11 00:37:38;;;;;;;4.20;2.75;;;14.50;99.90;;;;;;5069897;28;20104;-72
2022/06/11 00:40:05;;;;;;;2.30;2.08;;;14.40;99.90;;;;;;5066242;28;20029;-72
2022/06/11 00:42:33;;;;;;;5.95;2.72;;;14.40;99.90;;;;;;5059879;28;20055;-73
2022/06/11 00:45:32;;;;;;;5.60;2.80;;;14.30;99.90;;;;;;5064240;28;20021;-73
2022/06/11 00:47:59;;;;;;;4.95;2.72;;;14.30;99.90;;;;;;5066410;28;20031;-72
2022/06/11 00:50:38;;;;;;;3.10;2.50;;;14.30;99.90;;;;;;5070545;28;20024;-73
2022/06/11 00:53:11;;;;;;;6.35;2.80;;;14.30;99.90;;;;;;5066909;28;20029;-73
2022/06/11 00:55:38;;;;;;;4.72;2.90;;;14.30;99.90;;;;;;5056950;28;20100;-72
2022/06/11 00:58:16;;;;;;;3.72;2.40;;;14.20;99.90;;;;;;5059070;28;20040;-73
2022/06/11 01:00:50;;;;;;;3.40;2.65;;;14.20;99.90;;;;;;5063591;28;20032;-71
2022/06/11 01:03:20;;;;;;;4.32;2.85;;;14.20;99.90;;;;;;5065844;28;20029;-72
2022/06/11 01:05:59;;;;;;;4.78;2.50;;;14.10;99.90;;;;;;5056804;28;20032;-72
2022/06/11 01:08:42;;;;;;;3.30;2.40;;;14.10;99.90;;;;;;5070808;28;20032;-71
2022/06/11 01:11:20;;;;;;;4.22;2.63;;;14.10;99.90;;;;;;5065078;28;20032;-72
2022/06/11 01:14:28;;;;;;;4.45;2.30;;;14.00;99.90;;;;;;5057885;28;20025;-73
2022/06/11 01:16:59;;;;;;;5.35;3.30;;;14.00;99.90;;;;;;5069244;28;20784;-72
2022/06/11 01:19:44;;;;;;;3.97;2.70;;;13.90;99.90;;;;;;5070706;28;20037;-73
2022/06/11 01:22:25;;;;;;;8.50;2.88;;;13.90;99.90;;;;;;5064104;28;20112;-72
2022/06/11 01:25:00;;;;;;;5.88;2.92;;;13.90;99.90;;;;;;5061531;28;20381;-73
2022/06/11 01:27:49;;;;;;;3.13;2.13;;;13.90;99.90;;;;;;5059963;28;20071;-73
2022/06/11 01:30:28;;;;;;;4.53;2.72;;;13.90;99.90;;;;;;5057163;28;20048;-73
2022/06/11 01:33:31;;;;;;;2.85;2.30;;;13.80;99.90;;;;;;5059523;28;20017;-73
2022/06/11 01:36:05;;;;;;;3.10;2.63;;;13.80;99.90;;;;;;5071773;28;20763;-72
2022/06/11 01:38:38;;;;;;;4.25;2.38;;;13.80;99.90;;;;;;5070175;28;20427;-73
2022/06/11 01:41:09;;;;;;;3.42;2.20;;;13.80;99.90;;;;;;5060375;28;20544;-72
2022/06/11 01:43:40;;;;;;;3.33;2.38;;;13.70;99.90;;;;;;5057593;28;20047;-72
2022/06/11 01:46:29;;;;;;;2.83;2.22;;;13.70;99.90;;;;;;5074177;28;20020;-73
2022/06/11 01:48:58;;;;;;;3.42;2.58;;;13.70;99.90;;;;;;5068383;28;20037;-73
2022/06/11 01:51:57;;;;;;;3.47;2.30;;;13.70;99.90;;;;;;5069980;28;20060;-72
2022/06/11 01:55:00;;;;;;;3.92;2.20;;;13.70;99.90;;;;;;5055019;28;20474;-73
2022/06/11 01:57:43;;;;;;;4.97;2.20;;;13.70;99.90;;;;;;5061828;28;20416;-73
2022/06/11 02:00:09;;;;;;;2.80;2.00;;;13.70;99.90;;;;;;5067185;28;20033;-73
2022/06/11 02:02:52;;;;;;;3.67;2.45;;;13.60;99.90;;;;;;5062710;28;20162;-71
2022/06/11 02:05:18;;;;;;;4.63;2.70;;;13.60;99.90;;;;;;5070281;28;20052;-72
2022/06/11 02:08:20;;;;;;;3.65;2.60;;;13.60;99.90;;;;;;5071283;28;20052;-73
2022/06/11 02:11:16;;;;;;;3.25;2.22;;;13.50;99.90;;;;;;5048075;28;20473;-73
2022/06/11 02:13:52;;;;;;;2.35;2.05;;;13.50;99.90;;;;;;5065891;28;20040;-72
2022/06/11 02:16:42;;;;;;;5.18;2.75;;;13.40;99.90;;;;;;5067517;28;20378;-73
2022/06/11 02:19:13;;;;;;;3.53;2.47;;;13.40;99.90;;;;;;5070969;28;20068;-73
2022/06/11 02:21:49;;;;;;;2.70;2.40;;;13.40;99.90;;;;;;5068428;28;20024;-71
2022/06/11 02:24:20;;;;;;;3.58;2.47;;;13.30;99.90;;;;;;5069140;28;20032;-73
2022/06/11 02:26:51;;;;;;;2.75;2.55;;;13.30;99.90;;;;;;5067865;28;20027;-74
2022/06/11 02:29:17;;;;;;;;;;;13.30;99.90;;;;;;5070861;28;20044;-73
2022/06/11 02:31:58;;;;;;;3.13;2.25;;;13.20;99.90;;;;;;5070353;28;19908;-73
2022/06/11 02:34:27;;;;;;;2.30;2.10;;;13.20;99.90;;;;;;5070712;28;20132;-72
2022/06/11 02:37:05;;;;;;;2.47;2.08;;;13.20;99.90;;;;;;5069580;28;20016;-72
2022/06/11 02:39:34;;;;;;;2.78;2.30;;;13.20;99.90;;;;;;5070528;28;20042;-72
2022/06/11 02:42:02;;;;;;;2.63;2.40;;;13.10;99.90;;;;;;5067717;28;20529;-73
2022/06/11 02:44:28;;;;;;;3.45;2.58;;;13.10;99.90;;;;;;5071648;28;20042;-72
2022/06/11 02:46:54;;;;;;;4.72;2.45;;;13.00;99.90;;;;;;5068047;28;20504;-74
2022/06/11 02:49:26;;;;;;;4.35;2.55;;;13.00;99.90;;;;;;5071665;28;20032;-72
2022/06/11 02:51:56;;;;;;;3.92;2.20;;;13.00;99.90;;;;;;5070709;28;20033;-73
2022/06/11 02:54:23;;;;;;;3.60;2.50;;;12.90;99.90;;;;;;5068933;28;20362;-72
2022/06/11 02:56:50;;;;;;;2.85;2.22;;;12.90;99.90;;;;;;5070751;28;20024;-72
2022/06/11 02:59:16;;;;;;;2.78;2.33;;;12.90;99.90;;;;;;5071900;28;20071;-73
2022/06/11 03:01:42;;;;;;;2.05;1.95;;;12.80;99.90;;;;;;5057618;28;20068;-73
2022/06/11 03:04:09;;;;;;;3.35;2.47;;;12.80;99.90;;;;;;5072820;28;20047;-72
2022/06/11 03:06:38;;;;;;;2.83;2.15;;;12.80;99.90;;;;;;5065369;28;20032;-74
2022/06/11 03:09:04;;;;;;;2.53;2.10;;;12.80;99.90;;;;;;5063332;28;20020;-73
2022/06/11 03:11:30;;;;;;;2.45;2.25;;;12.70;99.90;;;;;;5070439;28;20443;-72
2022/06/11 03:13:55;;;;;;;4.13;2.72;;;12.70;99.90;;;;;;5066396;28;20029;-73
2022/06/11 03:16:21;;;;;;;2.45;2.25;;;12.70;99.90;;;;;;5069547;28;20029;-72
2022/06/11 03:18:47;;;;;;;4.38;2.30;;;12.70;99.90;;;;;;5062299;28;20056;-72
2022/06/11 03:21:13;;;;;;;3.08;2.47;;;12.70;99.90;;;;;;5072124;28;20036;-73
2022/06/11 03:23:39;;;;;;;3.53;2.50;;;12.70;99.90;;;;;;5062961;28;20104;-71
2022/06/11 03:26:06;;;;;;;4.03;2.63;;;12.70;99.90;;;;;;5068989;28;20017;-73
2022/06/11 03:28:33;;;;;;;3.72;2.63;;;12.70;99.90;;;;;;5068789;28;20135;-72
2022/06/11 03:31:00;;;;;;;2.92;2.25;;;12.60;99.90;;;;;;5067604;28;20033;-72
2022/06/11 03:33:26;;;;;;;2.45;2.25;;;12.60;99.90;;;;;;5058921;28;20075;-71
2022/06/11 03:35:52;;;;;;;3.33;2.70;;;12.60;99.90;;;;;;5070698;28;20108;-71
2022/06/11 03:38:20;;;;;;;2.85;2.38;;;12.60;99.90;;;;;;5067225;28;20024;-72
2022/06/11 03:40:46;;;;;;;4.03;2.65;;;12.60;99.90;;;;;;5066108;28;20033;-71
2022/06/11 03:43:12;;;;;;;2.47;1.85;;;12.60;99.90;;;;;;5065999;28;20052;-72
2022/06/11 03:45:38;;;;;;;3.35;2.35;;;12.60;99.90;;;;;;5067321;28;20029;-72
2022/06/11 03:48:05;;;;;;;3.97;2.40;;;12.60;99.90;;;;;;5071367;28;20061;-73
2022/06/11 03:50:35;;;;;;;5.32;2.58;;;12.60;99.90;;;;;;5056729;28;20061;-73
2022/06/11 03:53:02;;;;;;;3.05;2.63;;;12.70;99.90;;;;;;5062786;28;20751;-73
2022/06/11 03:55:29;;;;;;;3.35;2.30;;;12.70;99.90;;;;;;5068782;28;20071;-72
2022/06/11 03:57:55;;;;;;;3.88;2.63;;;12.70;99.90;;;;;;5062398;28;20082;-72
2022/06/11 04:03:12;;;;;;;3.20;2.40;;;12.70;99.90;;;;;;5069582;28;20116;-73
2022/06/11 04:05:39;;;;;;;3.15;2.65;;;12.70;99.90;;;;;;5068624;28;20103;-72
2022/06/11 04:08:05;;;;;;;3.75;2.35;;;12.70;99.90;;;;;;5060240;28;20028;-73
2022/06/11 04:10:31;;;;;;;2.85;2.60;;;12.80;99.90;;;;;;5071241;28;20033;-72
2022/06/11 04:12:57;;;;;;;2.50;2.30;;;12.80;99.90;;;;;;5066829;28;20027;-72
2022/06/11 04:15:23;;;;;;;2.60;2.20;;;12.80;99.90;;;;;;5062218;28;20040;-72
2022/06/11 04:17:49;;;;;;;3.83;2.55;;;12.90;99.90;;;;;;5067199;28;20040;-72
2022/06/11 04:20:16;;;;;;;3.90;2.65;;;12.90;99.90;;;;;;5057268;28;20032;-72
2022/06/11 04:22:43;;;;;;;3.20;2.45;;;12.90;99.90;;;;;;5064425;28;20020;-72
2022/06/11 04:25:12;;;;;;;4.55;2.83;;;12.90;99.90;;;;;;5061348;28;20025;-71
2022/06/11 04:27:38;;;;;;;2.80;2.45;;;13.00;99.90;;;;;;5066172;28;20029;-72
2022/06/11 04:30:05;;;;;;;3.38;2.45;;;13.10;99.90;;;;;;5069101;28;20066;-73
2022/06/11 04:32:31;;;;;;;3.88;3.00;;;13.20;99.90;;;;;;5062938;28;20028;-73
2022/06/11 04:34:57;;;;;;;5.75;2.80;;;13.20;99.90;;;;;;5062169;28;20037;-73
2022/06/11 04:37:26;;;;;;;3.10;2.72;;;13.30;99.90;;;;;;5067598;28;20470;-72
2022/06/11 04:39:54;;;;;;;4.18;3.10;;;13.40;99.90;;;;;;5069527;28;20432;-74
2022/06/11 04:42:21;;;;;;;4.05;2.90;;;13.50;99.90;;;;;;5060576;28;20020;-72
2022/06/11 04:44:48;;;;;;;4.57;2.72;;;13.60;99.90;;;;;;5063945;28;20025;-72
2022/06/11 04:47:21;;;;;;;2.50;2.30;;;13.70;99.90;;;;;;5064475;28;20029;-73
2022/06/11 04:49:51;;;;;;;5.28;3.20;;;13.70;99.90;;;;;;5069038;28;20477;-72
2022/06/11 04:52:17;;;;;;;4.20;2.83;;;13.90;99.90;;;;;;5058486;28;20029;-72
2022/06/11 04:54:42;;;;;;;4.07;2.75;;;13.90;99.90;;;;;;5067876;28;20111;-73
2022/06/11 04:57:09;;;;;;;5.43;3.45;;;14.00;99.90;;;;;;5064895;28;20036;-73
2022/06/11 04:59:35;;;;;;;4.40;3.33;;;14.20;99.90;;;;;;5068176;28;20496;-72
2022/06/11 05:02:02;;;;;;;6.88;3.78;;;14.30;99.90;;;;;;5055294;28;20024;-72
2022/06/11 05:04:28;;;;;;;7.88;3.03;;;14.50;99.90;;;;;;5072782;28;20029;-73
2022/06/11 05:06:54;;;;;;;5.70;3.22;;;14.60;99.90;;;;;;5066962;28;20031;-74
2022/06/11 05:09:22;;;;;;;5.45;3.00;;;14.80;99.90;;;;;;5062888;28;20458;-73
2022/06/11 05:11:49;;;;;;;4.35;2.88;;;14.90;99.90;;;;;;5072948;28;20139;-73
2022/06/11 05:14:15;;;;;;;7.03;3.00;;;15.00;99.90;;;;;;5068249;28;20028;-73
2022/06/11 05:16:44;;;;;;;9.13;3.88;;;15.00;99.90;;;;;;5067989;28;20420;-72
2022/06/11 05:19:13;;;;;;;5.57;3.20;;;15.20;99.90;;;;;;5068384;28;20525;-73
2022/06/11 05:21:39;;;;;;;4.30;3.03;;;15.30;99.90;;;;;;5072066;28;20035;-72
2022/06/11 05:24:05;;;;;;;6.78;3.10;;;15.40;99.90;;;;;;5065576;28;20090;-72
2022/06/11 05:26:38;;;;;;;5.63;3.22;;;15.40;99.90;;;;;;5069422;28;20029;-73
2022/06/11 05:29:06;;;;;;;3.67;2.78;;;15.60;99.90;;;;;;5072633;28;20056;-73
2022/06/11 05:31:32;;;;;;;7.70;3.20;;;15.70;99.90;;;;;;5068370;28;20028;-72
2022/06/11 05:33:57;;;;;;;6.88;3.45;;;15.80;99.90;;;;;;5062769;28;20815;-74
2022/06/11 05:36:23;;;;;;;4.72;3.17;;;16.00;99.90;;;;;;5074101;28;20070;-72
2022/06/11 05:38:49;;;;;;;4.65;2.80;;;16.20;99.90;;;;;;5058462;28;20029;-72
2022/06/11 05:41:15;;;;;;;6.35;3.38;;;16.30;99.90;;;;;;5068492;28;20486;-73
2022/06/11 05:43:41;;;;;;;4.90;3.08;;;16.30;99.90;;;;;;5059168;28;20070;-72
2022/06/11 05:46:26;;;;;;;3.25;2.65;;;16.40;99.90;;;;;;5059379;28;20376;-73
2022/06/11 05:49:00;;;;;;;4.32;2.92;;;16.50;99.90;;;;;;5069381;28;20083;-72
2022/06/11 05:51:30;;;;;;;8.05;3.30;;;16.60;99.90;;;;;;5070251;28;20036;-72
2022/06/11 05:53:56;;;;;;;8.40;3.13;;;16.80;99.90;;;;;;5053878;28;20024;-74
2022/06/11 05:56:22;;;;;;;4.97;3.05;;;16.90;99.90;;;;;;5073481;28;20028;-73
2022/06/11 05:58:51;;;;;;;5.97;2.95;;;16.90;99.90;;;;;;5065076;28;20027;-73
2022/06/11 06:01:22;;;;;;;4.50;2.88;;;17.10;99.90;;;;;;5060889;28;20029;-73
2022/06/11 06:03:48;;;;;;;3.53;2.72;;;17.10;99.90;;;;;;5072718;28;20029;-73
2022/06/11 06:06:14;;;;;;;4.90;3.13;;;17.20;99.90;;;;;;5066821;28;20021;-73
2022/06/11 06:08:41;;;;;;;3.03;2.83;;;17.20;99.90;;;;;;5066733;28;20095;-72
2022/06/11 06:11:06;;;;;;;4.05;2.72;;;17.30;99.90;;;;;;5060372;28;20488;-71
2022/06/11 06:13:47;;;;;;;9.68;2.72;;;17.40;99.90;;;;;;5074212;28;20111;-73
2022/06/11 06:16:29;;;;;;;3.55;2.60;;;17.60;99.90;;;;;;5071784;28;20046;-73
2022/06/11 06:18:56;;;;;;;4.70;2.85;;;17.70;99.90;;;;;;5064584;28;20056;-72
2022/06/11 06:21:23;;;;;;;4.25;2.67;;;17.80;99.90;;;;;;5068709;28;20494;-71
2022/06/11 06:23:49;;;;;;;8.50;3.05;;;17.90;99.90;;;;;;5071891;28;20470;-73
2022/06/11 06:26:16;;;;;;;8.02;3.25;;;18.00;99.90;;;;;;5061399;28;20036;-72
2022/06/11 06:28:42;;;;;;;3.72;2.67;;;18.20;99.90;;;;;;5067821;28;20059;-72
2022/06/11 06:31:10;;;;;;;5.90;2.88;;;18.30;99.90;;;;;;5083294;28;20377;-73
2022/06/11 06:33:36;;;;;;;5.93;2.80;;;18.40;99.90;;;;;;5082921;28;20089;-72
2022/06/11 06:36:05;;;;;;;8.07;2.97;;;18.40;99.90;;;;;;5092397;28;20648;-72
2022/06/11 06:38:31;;;;;;;5.10;2.90;;;18.50;99.90;;;;;;5088994;28;20020;-73
2022/06/11 06:40:57;;;;;;;3.88;2.70;;;18.60;99.90;;;;;;5085534;28;20111;-72
2022/06/11 06:43:23;;;;;;;5.35;2.70;;;18.70;99.90;;;;;;5076321;28;20131;-72
2022/06/11 06:45:48;;;;;;;2.65;2.33;;;18.80;99.90;;;;;;5088088;28;20037;-73
2022/06/11 06:48:15;;;;;;;4.20;2.30;;;19.00;99.90;;;;;;5087021;28;20016;-72
2022/06/11 06:50:40;;;;;;;3.45;2.28;;;19.20;99.90;;;;;;5086790;28;20028;-78
2022/06/11 06:53:06;;;;;;;5.90;2.15;;;19.40;99.90;;;;;;5085977;28;20030;-70
2022/06/11 06:55:32;;;;;;;3.63;2.40;;;19.40;99.90;;;;;;5090526;28;20031;-73
2022/06/11 06:57:58;;;;;;;6.95;2.78;;;19.50;99.90;;;;;;5065502;28;20032;-70
2022/06/11 07:00:24;;;;;;;4.60;2.42;;;19.60;99.90;;;;;;5092507;28;20109;-77
2022/06/11 07:02:53;;;;;;;5.30;2.67;;;19.80;99.90;;;;;;5092057;28;20052;-74
2022/06/11 07:05:20;;;;;;;3.87;2.17;;;19.90;99.90;;;;;;5097848;28;20053;-73
2022/06/11 07:07:47;;;;;;;4.18;2.40;;;20.20;99.90;;;;;;5081497;28;20025;-79
2022/06/11 07:10:14;;;;;;;5.70;2.35;;;20.40;99.90;;;;;;5092517;28;20098;-77
2022/06/11 07:12:39;;;;;;;4.25;2.50;;;20.40;99.90;;;;;;5087687;28;20089;-81
2022/06/11 07:15:06;;;;;;;4.00;2.22;;;20.60;99.90;;;;;;5067339;28;20024;-73
2022/06/11 07:17:37;;;;;;;6.95;2.50;;;20.80;99.90;;;;;;5089422;28;20112;-76
2022/06/11 07:20:12;;;;;;;5.57;2.28;;;20.90;99.90;;;;;;5078563;28;20034;-75
2022/06/11 07:22:43;;;;;;;4.15;2.20;;;20.90;99.90;;;;;;5086590;28;20034;-78
2022/06/11 07:25:10;;;;;;;8.45;2.50;;;21.00;99.90;;;;;;5083189;28;20082;-77
2022/06/11 07:27:41;;;;;;;5.40;2.20;;;21.10;99.90;;;;;;5095975;28;20023;-78
2022/06/11 07:30:12;;;;;;;4.93;1.80;;;21.20;99.20;;;;;;5058769;28;20067;-76
2022/06/11 07:32:40;;;;;;;1.42;1.25;;;21.40;98.40;;;;;;5065230;28;20052;-78
2022/06/11 07:35:11;;;;;;;4.70;1.90;;;21.40;97.90;;;;;;5064941;28;20522;-73
2022/06/11 07:37:37;;;;;;;2.95;1.50;;;21.60;96.90;;;;;;5071734;28;20075;-73
2022/06/11 07:40:05;;;;;;;5.60;2.33;;;21.80;96.70;;;;;;5064443;28;20037;-80
2022/06/11 07:42:30;;;;;;;5.22;2.30;;;22.00;97.50;;;;;;5067790;28;20041;-73
2022/06/11 07:44:56;;;;;;;3.28;2.08;;;22.20;97.40;;;;;;5053815;28;20111;-76
2022/06/11 07:50:07;;;;;;;6.25;2.25;;;22.40;95.40;;;;;;5064449;28;20047;-76
2022/06/11 07:52:33;;;;;;;2.78;1.80;;;22.40;95.30;;;;;;5060146;28;20029;-74
2022/06/11 07:54:59;;;;;;;3.90;1.90;;;22.50;95.40;;;;;;5067951;28;20786;-75
2022/06/11 07:57:24;;;;;;;6.30;2.08;;;22.70;94.00;;;;;;5063182;28;20083;-74
2022/06/11 07:59:50;;;;;;;4.38;2.25;;;22.80;93.30;;;;;;5067926;28;20033;-75
2022/06/11 08:02:16;;;;;;;4.25;1.80;;;22.80;93.00;;;;;;5058123;28;20016;-74
2022/06/11 08:04:41;;;;;;;4.80;2.10;;;22.90;93.10;;;;;;5069365;28;20390;-71
2022/06/11 08:07:07;;;;;;;4.97;1.80;;;23.10;92.60;;;;;;5065322;28;20078;-75
2022/06/11 08:09:33;;;;;;;5.43;2.10;;;23.10;91.90;;;;;;5057681;28;20114;-74
2022/06/11 08:11:58;;;;;;;3.72;1.90;;;23.30;91.00;;;;;;5070450;28;20486;-74
2022/06/11 08:14:24;;;;;;;6.25;1.70;;;23.20;91.00;;;;;;5064746;28;20099;-74
2022/06/11 08:16:50;;;;;;;3.95;1.80;;;23.30;90.60;;;;;;5062533;28;20035;-78
2022/06/11 08:19:16;;;;;;;2.97;1.90;;;23.40;90.80;;;;;;5066153;28;20033;-78
2022/06/11 08:21:42;;;;;;;4.15;2.10;;;23.50;90.20;;;;;;5065032;28;20029;-73
2022/06/11 08:24:08;;;;;;;6.13;1.98;;;23.60;89.40;;;;;;5070089;28;20016;-77
2022/06/11 08:26:35;;;;;;;6.13;2.08;;;23.80;86.70;;;;;;5059864;28;20543;-79
2022/06/11 08:29:00;;;;;;;6.60;2.45;;;23.80;88.00;;;;;;5068147;28;20113;-78
2022/06/11 08:31:26;;;;;;;5.65;2.05;;;24.00;86.60;;;;;;5066246;28;20044;-76
2022/06/11 08:33:52;;;;;;;3.88;1.63;;;24.00;84.80;;;;;;5063103;28;20089;-74
2022/06/11 08:36:17;;;;;;;5.05;1.88;;;23.90;84.50;;;;;;5058861;28;20021;-72
2022/06/11 08:38:43;;;;;;;5.03;1.85;;;24.00;83.70;;;;;;5065565;28;20025;-74
2022/06/11 08:41:17;;;;;;;4.30;1.70;;;24.00;83.10;;;;;;5062634;28;20462;-72
2022/06/11 08:43:52;;;;;;;3.33;1.70;;;24.00;82.70;;;;;;5054942;28;20036;-75
2022/06/11 08:46:21;;;;;;;3.38;2.03;;;23.90;82.30;;;;;;5070686;28;20021;-75
2022/06/11 08:49:05;;;;;;;4.10;1.70;;;23.90;83.20;;;;;;5063363;28;20035;-74
2022/06/11 08:51:40;;;;;;;4.18;1.75;;;24.00;83.10;;;;;;5071108;28;20032;-75
2022/06/11 08:54:12;;;;;;;4.50;2.10;;;24.20;81.80;;;;;;5055664;28;20036;-74
2022/06/11 08:56:40;;;;;;;4.63;1.83;;;24.30;81.40;;;;;;5070264;28;20032;-74
2022/06/11 08:59:32;;;;;;;2.33;1.50;;;24.40;80.80;;;;;;5070212;28;20093;-73
2022/06/11 09:02:29;;;;;;;5.97;1.98;;;24.40;79.40;;;;;;5068130;28;20028;-74
2022/06/11 09:05:13;;;;;;;7.78;2.00;;;24.40;79.90;;;;;;5065239;28;20385;-74
2022/06/11 09:07:58;;;;;;;3.95;1.77;;;24.40;78.90;;;;;;5060421;28;20420;-75
2022/06/11 09:10:38;;;;;;;2.90;1.88;;;24.50;79.70;;;;;;5050657;28;20063;-75
2022/06/11 09:13:29;;;;;;;3.47;1.55;;;24.60;78.70;;;;;;5063312;28;20021;-76
2022/06/11 09:16:39;;;;;;;8.75;2.13;;;24.70;77.70;;;;;;5013020;28;20052;-74
2022/06/11 09:19:05;;;;;;;;;;;24.90;77.20;;;;;;5050901;28;20432;-75
2022/06/11 09:22:00;;;;;;;4.63;2.05;;;25.10;76.10;;;;;;5067010;28;19916;-75
2022/06/11 09:24:43;;;;;;;4.10;2.00;;;25.30;74.40;;;;;;5061933;28;20067;-73
2022/06/11 09:27:22;;;;;;;4.13;1.85;;;25.30;73.90;;;;;;5065916;28;20074;-74
2022/06/11 09:29:56;;;;;;;6.97;2.15;;;25.30;73.90;;;;;;5069986;28;20084;-74
2022/06/11 09:32:45;;;;;;;5.78;1.88;;;25.30;73.80;;;;;;5084052;28;20433;-75
2022/06/11 09:35:17;;;;;;;5.22;1.88;;;25.30;72.70;;;;;;5084783;28;20099;-74
2022/06/11 09:38:00;;;;;;;4.05;1.90;;;25.40;72.80;;;;;;5086301;28;20338;-75
2022/06/11 09:40:41;;;;;;;5.05;2.10;;;25.60;72.40;;;;;;5088613;28;20038;-75
2022/06/11 09:43:26;;;;;;;4.95;1.73;;;25.70;72.00;;;;;;5072809;28;20028;-75
2022/06/11 09:46:07;;;;;;;5.80;1.90;;;25.90;71.40;;;;;;5089253;28;20042;-76
2022/06/11 09:48:51;;;;;;;7.20;2.10;;;26.10;70.90;;;;;;5089866;28;20035;-75
2022/06/11 09:51:34;;;;;;;6.57;2.28;;;26.20;69.90;;;;;;5086655;28;20093;-75
2022/06/11 09:54:32;;;;;;;4.60;1.83;;;26.20;70.30;;;;;;5090807;28;20070;-75
2022/06/11 09:57:31;;;;;;;3.58;1.70;;;26.30;70.00;;;;;;5089691;28;20474;-75
2022/06/11 10:00:14;;;;;;;4.40;1.90;;;26.50;70.00;;;;;;5085356;28;20036;-75
2022/06/11 10:03:24;;;;;;;6.18;2.03;;;26.70;67.70;;;;;;5083674;28;20099;-75
2022/06/11 10:05:56;;;;;;;3.28;1.60;;;26.60;67.90;;;;;;5075476;28;20042;-75
2022/06/11 10:08:44;;;;;;;5.00;1.73;;;26.60;67.60;;;;;;5090268;28;20025;-73
2022/06/11 10:11:19;;;;;;;4.90;1.95;;;26.60;67.40;;;;;;5087706;28;20103;-74
2022/06/11 10:14:28;;;;;;;5.47;1.83;;;26.70;68.20;;;;;;5086799;28;20474;-72
2022/06/11 10:17:02;;;;;;;3.10;1.63;;;26.70;67.80;;;;;;5077747;28;20027;-74
2022/06/11 10:19:34;;;;;;;4.10;2.05;;;26.90;68.00;;;;;;5090304;28;20031;-71
2022/06/11 10:22:24;;;;;;;3.83;1.60;;;27.00;67.20;;;;;;5081357;28;20031;-76
2022/06/11 10:25:08;;;;;;;6.18;2.08;;;27.20;66.80;;;;;;5085666;28;20024;-74
2022/06/11 10:27:40;;;;;;;3.67;1.92;;;27.40;66.00;;;;;;5089912;28;20024;-74
2022/06/11 10:30:24;;;;;;;5.05;1.75;;;27.50;65.90;;;;;;5074845;28;20635;-72
2022/06/11 10:32:51;;;;;;;3.65;1.70;;;27.50;65.20;;;;;;5065447;28;20083;-73
2022/06/11 10:35:22;;;;;;;3.22;1.40;;;27.20;65.30;;;;;;5068024;28;20070;-73
2022/06/11 10:37:51;;;;;;;3.60;1.77;;;27.00;66.00;;;;;;5067795;28;20051;-72
2022/06/11 10:40:22;;;;;;;4.07;1.73;;;26.80;66.30;;;;;;5072860;28;20531;-72
2022/06/11 10:43:09;;;;;;;4.13;1.92;;;26.60;66.70;;;;;;5063046;28;20052;-74
2022/06/11 10:45:35;;;;;;;5.10;2.00;;;26.50;66.90;;;;;;5056307;28;20021;-71
2022/06/11 10:48:05;;;;;;;5.82;2.10;;;26.30;66.00;;;;;;5071978;28;20024;-72
2022/06/11 10:50:36;;;;;;;5.10;2.50;;;26.20;66.10;;;;;;5063577;28;20025;-69
2022/06/11 10:53:01;;;;;;;5.93;2.42;;;26.00;67.20;;;;;;5060560;28;20025;-71
2022/06/11 10:56:12;;;;;;;4.03;1.60;;;25.80;66.90;;;;;;5066447;28;20025;-71
2022/06/11 10:58:57;;;;;;;3.00;1.73;;;25.60;67.70;;;;;;5044941;28;20044;-71
2022/06/11 11:01:34;;;;;;;3.05;1.80;;;25.40;68.30;;;;;;5067925;28;20086;-69
2022/06/11 11:04:25;;;;;;;2.75;1.60;;;25.40;68.70;;;;;;5060500;28;20481;-71
2022/06/11 11:07:39;;;;;;;7.45;2.17;;;25.40;69.00;;;;;;5064471;28;20028;-70
2022/06/11 11:10:22;;;;;;;6.13;2.00;;;25.60;68.60;;;;;;4965788;28;20023;-71
2022/06/11 11:12:51;;;;;;;4.50;2.00;;;25.90;69.00;;;;;;5064238;28;20044;-72
2022/06/11 11:15:21;;;;;;;6.90;2.15;;;26.20;67.70;;;;;;5067337;28;20029;-70
2022/06/11 11:17:52;;;;;;;5.57;2.28;;;26.60;66.60;;;;;;5058924;28;20478;-71
2022/06/11 11:20:35;;;;;;;5.82;2.00;;;26.90;66.00;;;;;;5072449;28;20033;-70
2022/06/11 11:23:16;;;;;;;3.70;2.00;;;27.10;66.80;;;;;;5065871;28;20020;-73
2022/06/11 11:25:55;;;;;;;5.00;2.00;;;27.40;66.50;;;;;;5060310;28;20040;-70
2022/06/11 11:28:26;;;;;;;4.95;1.73;;;27.60;65.30;;;;;;5070375;28;20028;-67
2022/06/11 11:31:06;;;;;;;3.97;1.50;;;27.90;65.10;;;;;;5065752;28;20037;-69
2022/06/11 11:33:37;;;;;;;4.10;1.83;;;28.20;64.50;;;;;;5061080;28;20017;-70
2022/06/11 11:36:14;;;;;;;3.83;1.70;;;28.50;63.90;;;;;;5070912;28;20021;-69
2022/06/11 11:38:41;;;;;;;2.40;1.55;;;;;;;;;;5067892;28;20032;-69
2022/06/11 11:41:15;;;;;;;3.38;1.77;;;28.80;61.60;;;;;;5063841;28;20469;-70
2022/06/11 11:43:42;;;;;;;4.15;1.92;;;28.90;62.40;;;;;;5057251;28;20021;-70
2022/06/11 11:46:22;;;;;;;2.17;1.50;;;29.10;62.20;;;;;;5066036;28;20049;-70
2022/06/11 11:48:55;;;;;;;2.78;1.67;;;29.20;61.90;;;;;;5063802;28;20437;-71
2022/06/11 11:51:33;;;;;;;6.43;2.00;;;29.20;61.60;;;;;;5067766;28;20029;-70
2022/06/11 11:54:05;;;;;;;8.35;2.20;;;29.10;61.20;;;;;;5068441;28;20024;-70
2022/06/11 11:56:52;;;;;;;3.65;1.63;;;29.10;61.60;;;;;;5071015;28;20063;-71
2022/06/11 11:59:22;;;;;;;4.55;2.10;;;29.40;60.80;;;;;;5052771;28;20048;-70
2022/06/11 12:01:50;;;;;;;7.53;2.20;;;29.40;60.40;;;;;;5056229;28;20116;-71
2022/06/11 12:04:31;;;;;;;5.00;2.22;;;29.30;60.80;;;;;;5071256;28;20029;-70
2022/06/11 12:07:02;;;;;;;3.05;1.60;;;29.30;60.50;;;;;;5063925;28;20020;-71
2022/06/11 12:09:30;;;;;;;3.78;1.80;;;29.30;61.00;;;;;;5058482;28;20035;-73
2022/06/11 12:12:16;;;;;;;3.30;1.90;;;29.30;61.90;;;;;;5063769;28;20016;-69
2022/06/11 12:14:57;;;;;;;3.88;2.00;;;29.40;60.40;;;;;;5046679;28;20440;-70
2022/06/11 12:17:45;;;;;;;5.07;2.35;;;29.40;59.80;;;;;;5059240;28;20031;-71
2022/06/11 12:20:32;;;;;;;3.00;1.70;;;29.20;60.20;;;;;;5059251;28;20090;-71
2022/06/11 12:23:30;;;;;;;5.03;2.00;;;28.80;61.10;;;;;;5064968;28;20029;-70
2022/06/11 12:26:07;;;;;;;4.15;1.70;;;28.60;61.20;;;;;;5063690;28;20476;-72
2022/06/11 12:28:38;;;;;;;5.43;1.98;;;28.60;61.10;;;;;;5067950;28;20044;-72
2022/06/11 12:31:05;;;;;;;2.83;1.67;;;28.80;61.70;;;;;;5065028;28;20063;-72
2022/06/11 12:33:31;;;;;;;5.22;1.73;;;29.00;61.30;;;;;;5059261;28;20443;-72
2022/06/11 12:36:23;;;;;;;3.50;1.73;;;29.00;60.30;;;;;;5069882;28;20031;-70
2022/06/11 12:39:12;;;;;;;5.88;2.30;;;28.80;60.60;;;;;;5066516;28;20083;-73
2022/06/11 12:41:51;;;;;;;6.30;2.30;;;28.70;60.30;;;;;;5060477;28;20160;-71
2022/06/11 12:44:36;;;;;;;2.70;2.00;;;28.60;60.60;;;;;;5057865;28;20039;-71
2022/06/11 12:47:25;;;;;;;7.38;1.98;;;28.70;62.10;;;;;;5067774;28;20020;-71
2022/06/11 12:50:09;;;;;;;3.50;1.95;;;28.90;60.00;;;;;;5069853;28;20086;-72
2022/06/11 12:52:50;;;;;;;4.43;2.00;;;28.90;60.40;;;;;;5052041;28;20049;-71
2022/06/11 12:55:42;;;;;;;2.53;1.70;;;29.00;59.50;;;;;;5064321;28;20029;-72
2022/06/11 12:58:19;;;;;;;4.60;1.70;;;29.20;60.00;;;;;;5063599;28;20023;-72
2022/06/11 13:00:55;;;;;;;4.68;1.80;;;29.40;60.00;;;;;;5061627;28;20500;-71
2022/06/11 13:03:30;;;;;;;5.00;2.00;;;29.60;59.00;;;;;;5068330;28;20072;-71
2022/06/11 13:06:05;;;;;;;3.50;1.63;;;29.70;59.10;;;;;;5060728;28;20048;-74
2022/06/11 13:08:44;;;;;;;4.13;1.50;;;29.80;57.50;;;;;;5060581;28;20020;-70
2022/06/11 13:11:33;;;;;;;6.53;1.90;;;29.80;57.50;;;;;;5056475;28;20108;-73
2022/06/11 13:14:21;;;;;;;4.82;1.90;;;29.90;58.40;;;;;;5059442;28;20029;-72
2022/06/11 13:17:10;;;;;;;3.22;1.65;;;30.20;57.10;;;;;;5061182;28;20039;-74
2022/06/11 13:19:43;;;;;;;6.78;1.77;;;30.30;57.40;;;;;;5055219;28;20029;-73
2022/06/11 13:22:12;;;;;;;3.03;1.88;;;30.30;58.00;;;;;;5070251;28;20025;-71
2022/06/11 13:25:15;;;;;;;4.63;2.05;;;30.10;56.60;;;;;;5063280;28;20074;-72